KPOU/POU METAR and TAF weather

Enter ICAO airport designator
Station Type Date Time Source
KPOU METAR 2018/12/17 15:53 UTC NOAA

KPOU 171553Z 24003KT 10SM SCT008 04/02 A2970 RMK AO2 SLP053 T00440017


Station Type Date Time Source
KPOU Decoded METAR 2018/12/17 15:53 UTC NOAA

POUGHKEEPSIE DUTCHESS CTY, NY, United States (KPOU) 41-38N 073-53W 46M
Dec 17, 2018 - 10:53 AM EST / 2018.12.17 1553 UTC
Wind: from the WSW (240 degrees) at 3 MPH (3 KT):0
Visibility: 10 mile(s):0
Sky conditions: partly cloudy
Temperature: 39.9 F (4.4 C)
Dew Point: 35.1 F (1.7 C)
Relative Humidity: 82%
Pressure (altimeter): 29.7 in. Hg (1005 hPa)
ob: KPOU 171553Z 24003KT 10SM SCT008 04/02 A2970 RMK AO2 SLP053 T00440017
cycle: 16

Station Type Date Time Source
KPOU TAF 2018/12/17 16:09 UTC NOAA

TAF
AMD KPOU 171607Z 1716/1812 24003KT P6SM SCT035
FM171900 29012G23KT P6SM BKN035
FM181100 30012G22KT P6SM BKN050


Example: see airport list